createdAt,value
2022-11-25T00:01:08.942Z,18.37
2022-11-25T00:03:36.634Z,17.83
2022-11-25T00:06:12.605Z,13.80
2022-11-25T00:08:40.324Z,18.30
2022-11-25T00:11:07.598Z,18.60
2022-11-25T00:13:35.169Z,19.60
2022-11-25T00:16:10.311Z,17.77
2022-11-25T00:18:37.604Z,17.43
2022-11-25T00:21:09.760Z,19.43
2022-11-25T00:23:37.908Z,20.30
2022-11-25T00:26:32.846Z,20.27
2022-11-25T00:29:01.908Z,20.63
2022-11-25T00:31:33.386Z,20.37
2022-11-25T00:34:00.597Z,19.13
2022-11-25T00:36:30.169Z,19.23
2022-11-25T00:39:03.422Z,20.97
2022-11-25T00:41:49.450Z,21.93
2022-11-25T00:44:38.307Z,19.27
2022-11-25T00:47:20.183Z,20.93
2022-11-25T00:49:52.477Z,19.40
2022-11-25T00:52:22.339Z,18.47
2022-11-25T00:54:50.178Z,19.17
2022-11-25T00:57:19.308Z,18.92
2022-11-25T00:59:46.828Z,20.95
2022-11-25T01:02:15.744Z,19.17
2022-11-25T01:04:43.127Z,19.48
2022-11-25T01:07:10.467Z,19.23
2022-11-25T01:09:37.810Z,22.17
2022-11-25T01:12:05.565Z,21.43
2022-11-25T01:14:33.268Z,21.30
2022-11-25T01:17:00.470Z,22.27
2022-11-25T01:19:27.716Z,21.43
2022-11-25T01:21:54.796Z,20.83
2022-11-25T01:24:24.039Z,20.57
2022-11-25T01:26:51.349Z,19.73
2022-11-25T01:29:19.126Z,20.83
2022-11-25T01:31:46.860Z,22.90
2022-11-25T01:34:19.408Z,21.30
2022-11-25T01:36:46.980Z,20.37
2022-11-25T01:39:18.373Z,20.87
2022-11-25T01:41:46.484Z,21.37
2022-11-25T01:44:19.726Z,20.10
2022-11-25T01:47:03.677Z,21.60
2022-11-25T01:49:40.089Z,19.27
2022-11-25T01:52:34.488Z,21.13
2022-11-25T01:55:24.648Z,21.80
2022-11-25T01:58:15.117Z,19.80
2022-11-25T02:00:44.433Z,19.77
2022-11-25T02:03:11.664Z,19.47
2022-11-25T02:06:00.340Z,20.87
2022-11-25T02:08:28.513Z,19.35
2022-11-25T02:10:56.071Z,21.57
2022-11-25T02:13:24.280Z,20.60
2022-11-25T02:15:51.097Z,19.83
2022-11-25T02:18:18.409Z,19.70
2022-11-25T02:20:45.743Z,21.10
2022-11-25T02:23:19.682Z,21.77
2022-11-25T02:25:47.816Z,18.93
2022-11-25T02:28:18.450Z,18.10
2022-11-25T02:30:46.140Z,19.30
2022-11-25T02:33:14.284Z,17.30
2022-11-25T02:35:43.141Z,18.10
2022-11-25T02:38:15.413Z,18.57
2022-11-25T02:41:06.356Z,17.77
2022-11-25T02:43:33.698Z,17.17
2022-11-25T02:46:01.996Z,14.83
2022-11-25T02:49:06.974Z,15.77
2022-11-25T02:51:21.649Z,16.27
2022-11-25T02:53:49.108Z,16.17
2022-11-25T02:56:17.200Z,15.63
2022-11-25T02:58:44.512Z,16.20
2022-11-25T03:01:11.459Z,16.90
2022-11-25T03:03:39.129Z,15.43
2022-11-25T03:06:06.312Z,14.77
2022-11-25T03:08:33.393Z,15.70
2022-11-25T03:11:00.228Z,14.73
2022-11-25T03:13:27.340Z,14.17
2022-11-25T03:15:54.176Z,16.33
2022-11-25T03:18:21.297Z,14.80
2022-11-25T03:20:52.468Z,14.23
2022-11-25T03:23:20.059Z,16.40
2022-11-25T03:25:46.880Z,16.63
2022-11-25T03:28:14.228Z,15.97
2022-11-25T03:30:41.144Z,15.00
2022-11-25T03:33:08.211Z,15.77
2022-11-25T03:35:35.044Z,17.07
2022-11-25T03:38:02.140Z,16.13
2022-11-25T03:40:28.922Z,17.50
2022-11-25T03:42:56.023Z,16.40
2022-11-25T03:45:22.756Z,15.50
2022-11-25T03:47:49.889Z,16.87
2022-11-25T03:50:16.825Z,16.63
2022-11-25T03:52:44.002Z,16.83
2022-11-25T03:55:13.224Z,17.30
2022-11-25T03:57:41.308Z,16.43
2022-11-25T04:00:09.548Z,17.10
2022-11-25T04:02:37.692Z,16.63
2022-11-25T04:05:05.604Z,16.97
2022-11-25T04:07:32.827Z,17.63
2022-11-25T04:09:59.618Z,17.60
2022-11-25T04:12:45.342Z,16.83
2022-11-25T04:15:12.803Z,15.97
2022-11-25T04:17:40.496Z,16.67
2022-11-25T04:20:07.876Z,18.80
2022-11-25T04:22:35.157Z,17.80
2022-11-25T04:25:02.081Z,17.70
2022-11-25T04:27:29.217Z,17.43
2022-11-25T04:29:56.006Z,18.30
2022-11-25T04:32:23.243Z,19.50
2022-11-25T04:34:50.059Z,18.43
2022-11-25T04:37:17.165Z,20.27
2022-11-25T04:39:44.001Z,18.20
2022-11-25T04:42:29.325Z,19.73
2022-11-25T04:45:20.863Z,25.03
2022-11-25T04:47:44.573Z,33.07
2022-11-25T04:50:17.783Z,38.30
2022-11-25T04:52:44.945Z,36.33
2022-11-25T04:55:11.974Z,37.30
2022-11-25T04:57:39.221Z,33.17
2022-11-25T05:00:07.547Z,31.23
2022-11-25T05:02:34.825Z,26.27
2022-11-25T05:05:01.999Z,23.07
2022-11-25T05:07:29.863Z,24.67
2022-11-25T05:09:57.147Z,23.93
2022-11-25T05:12:27.416Z,22.40
2022-11-25T05:14:54.532Z,25.60
2022-11-25T05:17:24.446Z,26.67
2022-11-25T05:19:51.622Z,23.40
2022-11-25T05:22:38.914Z,21.77
2022-11-25T05:25:06.157Z,20.17
2022-11-25T05:27:33.163Z,19.80
2022-11-25T05:29:59.949Z,20.17
2022-11-25T05:32:26.987Z,19.67
2022-11-25T05:34:53.785Z,18.60
2022-11-25T05:37:24.354Z,18.50
2022-11-25T05:39:51.778Z,18.73
2022-11-25T05:42:19.012Z,20.53
2022-11-25T05:44:45.844Z,21.20
2022-11-25T05:47:12.924Z,22.60
2022-11-25T05:49:39.769Z,21.67
2022-11-25T05:52:06.820Z,24.30
2022-11-25T05:54:33.823Z,25.23
2022-11-25T05:57:00.991Z,25.73
2022-11-25T05:59:27.848Z,25.57
2022-11-25T06:01:54.913Z,37.27
2022-11-25T06:04:21.736Z,35.90
2022-11-25T06:06:48.814Z,43.77
2022-11-25T06:09:15.552Z,60.00
2022-11-25T06:11:42.704Z,43.27
2022-11-25T06:14:09.849Z,41.63
2022-11-25T06:16:36.880Z,31.63
2022-11-25T06:19:07.182Z,23.87
2022-11-25T06:21:34.304Z,19.47
2022-11-25T06:24:01.569Z,23.97
2022-11-25T06:26:28.756Z,24.77
2022-11-25T06:28:56.444Z,22.40
2022-11-25T06:31:25.632Z,24.33
2022-11-25T06:33:53.613Z,21.55
2022-11-25T06:36:22.051Z,22.60
2022-11-25T06:38:51.213Z,31.70
2022-11-25T06:41:19.290Z,31.80
2022-11-25T06:43:46.109Z,31.93
2022-11-25T06:46:19.848Z,31.23
2022-11-25T06:48:51.235Z,28.10
2022-11-25T06:51:18.659Z,31.70
2022-11-25T06:53:45.923Z,23.10
2022-11-25T06:56:16.408Z,21.10
2022-11-25T06:58:44.817Z,21.87
2022-11-25T07:01:13.254Z,22.80
2022-11-25T07:03:40.604Z,22.50
2022-11-25T07:06:08.437Z,20.87
2022-11-25T07:08:35.788Z,22.40
2022-11-25T07:11:20.699Z,22.63
2022-11-25T07:13:48.754Z,24.07
2022-11-25T07:16:15.860Z,23.80
2022-11-25T07:18:43.053Z,21.60
2022-11-25T07:21:15.924Z,20.20
2022-11-25T07:23:45.106Z,18.03
2022-11-25T07:26:13.774Z,17.00
2022-11-25T07:28:41.383Z,18.02
2022-11-25T07:31:32.451Z,16.90
2022-11-25T07:34:04.080Z,15.33
2022-11-25T07:36:33.033Z,15.87
2022-11-25T07:39:01.801Z,17.30
2022-11-25T07:43:58.666Z,15.67
2022-11-25T07:46:37.552Z,14.80
2022-11-25T07:49:07.695Z,18.17
2022-11-25T07:51:41.217Z,15.87
2022-11-25T07:54:10.202Z,16.47
2022-11-25T07:56:40.136Z,17.07
2022-11-25T07:59:15.025Z,15.20
2022-11-25T08:01:43.021Z,16.03
2022-11-25T08:04:18.091Z,16.63
2022-11-25T08:06:48.517Z,16.43
2022-11-25T08:09:20.944Z,16.85
2022-11-25T08:11:49.435Z,18.00
2022-11-25T08:14:16.829Z,17.98
2022-11-25T08:16:44.768Z,16.47
2022-11-25T08:19:15.042Z,15.40
2022-11-25T08:21:42.527Z,15.87
2022-11-25T08:24:18.013Z,15.37
2022-11-25T08:26:45.113Z,14.50
2022-11-25T08:29:17.077Z,14.60
2022-11-25T08:31:44.496Z,14.23
2022-11-25T08:34:18.980Z,16.30
2022-11-25T08:36:48.478Z,16.17
2022-11-25T08:39:44.183Z,15.20
2022-11-25T08:42:05.904Z,14.43
2022-11-25T08:44:33.129Z,14.50
2022-11-25T08:47:00.985Z,16.17
2022-11-25T08:49:31.150Z,16.03
2022-11-25T08:52:00.769Z,16.00
2022-11-25T08:54:27.491Z,15.83
2022-11-25T08:56:54.649Z,15.97
2022-11-25T08:59:22.899Z,15.83
2022-11-25T09:01:50.080Z,16.75
2022-11-25T09:04:16.956Z,15.43
2022-11-25T09:06:44.073Z,14.70
2022-11-25T09:09:10.860Z,16.33
2022-11-25T09:11:37.938Z,15.67
2022-11-25T09:14:04.813Z,17.87
2022-11-25T09:16:32.688Z,17.77
2022-11-25T09:19:00.208Z,17.57
2022-11-25T09:21:27.452Z,16.73
2022-11-25T09:23:57.620Z,14.07
2022-11-25T09:26:28.237Z,14.13
2022-11-25T09:28:55.908Z,59.67
2022-11-25T09:31:24.054Z,18.83
2022-11-25T09:33:51.304Z,24.90
2022-11-25T09:36:20.097Z,21.77
2022-11-25T09:38:47.001Z,15.63
2022-11-25T09:42:07.125Z,13.73
2022-11-25T09:45:01.677Z,13.60
2022-11-25T09:47:31.731Z,11.80
2022-11-25T09:50:20.903Z,12.30
2022-11-25T09:52:56.507Z,13.77
2022-11-25T09:55:25.638Z,13.00
2022-11-25T09:58:23.623Z,12.93
2022-11-25T10:00:52.708Z,13.73
2022-11-25T10:03:41.308Z,13.47
2022-11-25T10:06:13.929Z,13.55
2022-11-25T10:08:48.131Z,15.63
2022-11-25T10:11:21.284Z,16.70
2022-11-25T10:13:57.820Z,19.10
2022-11-25T10:16:47.144Z,15.87
2022-11-25T10:19:28.820Z,15.10
2022-11-25T10:21:55.705Z,17.77
2022-11-25T10:24:24.284Z,17.93
2022-11-25T10:27:00.279Z,17.83
2022-11-25T10:29:29.740Z,16.17
2022-11-25T10:34:37.234Z,15.63
2022-11-25T10:37:12.573Z,19.00
2022-11-25T10:39:40.456Z,16.57
2022-11-25T10:42:15.261Z,19.23
2022-11-25T10:44:42.567Z,16.63
2022-11-25T10:47:35.752Z,14.47
2022-11-25T10:50:09.188Z,16.97
2022-11-25T10:52:45.263Z,15.40
2022-11-25T10:55:15.799Z,14.33
2022-11-25T10:57:43.094Z,15.47
2022-11-25T11:00:28.959Z,15.30
2022-11-25T11:02:57.096Z,16.73
2022-11-25T11:05:29.708Z,17.38
2022-11-25T11:08:17.599Z,17.13
2022-11-25T11:10:45.309Z,19.00
2022-11-25T11:13:23.330Z,17.43
2022-11-25T11:15:51.446Z,16.23
2022-11-25T11:18:25.982Z,16.53
2022-11-25T11:20:59.482Z,14.17
2022-11-25T11:23:28.264Z,14.83
2022-11-25T11:28:25.976Z,13.33
2022-11-25T11:31:19.046Z,15.67
2022-11-25T11:33:48.698Z,17.60
2022-11-25T11:36:36.764Z,17.20
2022-11-25T11:39:31.081Z,17.27
2022-11-25T11:42:27.669Z,16.47
2022-11-25T11:45:16.038Z,17.63
2022-11-25T11:48:04.547Z,17.40
2022-11-25T11:50:32.607Z,18.88
2022-11-25T11:53:02.561Z,19.05
2022-11-25T11:55:41.349Z,17.90
2022-11-25T12:01:16.388Z,18.13
2022-11-25T12:03:55.631Z,19.60
2022-11-25T12:06:24.405Z,17.02
2022-11-25T12:11:35.839Z,18.90
2022-11-25T12:14:07.410Z,23.90
2022-11-25T12:16:41.637Z,24.93
2022-11-25T12:19:27.085Z,26.97
2022-11-25T12:22:08.426Z,28.07
2022-11-25T12:25:01.754Z,38.97
2022-11-25T12:27:53.026Z,29.80
2022-11-25T12:30:22.900Z,29.10
2022-11-25T12:33:10.656Z,25.40
2022-11-25T12:36:03.957Z,24.23
2022-11-25T12:38:47.132Z,26.77
2022-11-25T12:41:17.025Z,23.87
2022-11-25T12:43:55.328Z,26.33
2022-11-25T12:46:28.496Z,26.40
2022-11-25T12:48:58.164Z,25.47
2022-11-25T12:51:54.264Z,24.73
2022-11-25T12:54:23.675Z,25.33
2022-11-25T12:57:07.396Z,25.93
2022-11-25T13:00:32.693Z,29.47
2022-11-25T13:03:20.212Z,32.97
2022-11-25T13:05:49.660Z,32.50
2022-11-25T13:08:41.777Z,29.90
2022-11-25T13:11:33.625Z,30.60
2022-11-25T13:14:23.981Z,33.07
2022-11-25T13:16:53.256Z,30.17
2022-11-25T13:19:21.345Z,28.83
2022-11-25T13:21:57.036Z,30.20
2022-11-25T13:24:33.553Z,31.17
2022-11-25T13:27:01.596Z,30.73
2022-11-25T13:29:28.721Z,35.80
2022-11-25T13:31:59.490Z,34.63
2022-11-25T13:34:29.669Z,32.33
2022-11-25T13:37:01.793Z,28.00
2022-11-25T13:39:34.207Z,26.67
2022-11-25T13:42:18.052Z,26.73
2022-11-25T13:44:58.377Z,27.47
2022-11-25T13:47:28.337Z,25.73
2022-11-25T13:49:58.529Z,28.47
2022-11-25T13:52:35.051Z,28.07
2022-11-25T13:55:10.099Z,25.43
2022-11-25T13:57:40.685Z,28.17
2022-11-25T14:00:14.738Z,25.70
2022-11-25T14:02:49.564Z,30.33
2022-11-25T14:05:34.151Z,28.87
2022-11-25T14:08:21.528Z,28.70
2022-11-25T14:11:03.430Z,30.77
2022-11-25T14:14:07.982Z,29.37
2022-11-25T14:17:16.163Z,30.53
2022-11-25T14:20:21.795Z,31.77
2022-11-25T14:23:16.091Z,31.60
2022-11-25T14:26:20.999Z,34.93
2022-11-25T14:29:00.709Z,30.70
2022-11-25T14:31:36.278Z,33.47
2022-11-25T14:34:34.074Z,33.20
2022-11-25T14:37:12.527Z,36.53
2022-11-25T14:39:47.391Z,33.67
2022-11-25T14:42:17.812Z,38.63
2022-11-25T14:44:49.298Z,37.33
2022-11-25T14:47:25.002Z,38.77
2022-11-25T14:52:44.195Z,42.10
2022-11-25T14:55:11.944Z,43.13
2022-11-25T14:57:43.821Z,45.93
2022-11-25T15:00:17.953Z,48.67
2022-11-25T15:02:54.079Z,48.03
2022-11-25T15:05:33.214Z,49.90
2022-11-25T15:08:07.985Z,58.70
2022-11-25T15:10:54.905Z,59.93
2022-11-25T15:13:29.621Z,62.83
2022-11-25T15:16:05.107Z,72.50
2022-11-25T15:18:34.976Z,62.53
2022-11-25T15:21:02.680Z,64.27
2022-11-25T15:23:37.572Z,68.57
2022-11-25T15:26:14.524Z,74.40
2022-11-25T15:28:42.038Z,80.60
2022-11-25T15:31:12.853Z,83.73
2022-11-25T15:33:41.558Z,105.43
2022-11-25T15:36:08.577Z,77.32
2022-11-25T15:38:46.531Z,123.00
2022-11-25T15:41:35.974Z,93.53
2022-11-25T15:44:06.053Z,76.87
2022-11-25T15:46:35.840Z,83.53
2022-11-25T15:49:05.985Z,90.77
2022-11-25T15:51:41.692Z,114.27
2022-11-25T15:54:24.896Z,142.40
2022-11-25T15:56:56.302Z,125.60
2022-11-25T15:59:49.572Z,91.17
2022-11-25T16:02:39.659Z,67.83
2022-11-25T16:05:13.049Z,222.60
2022-11-25T16:07:52.337Z,74.03
2022-11-25T16:10:23.775Z,94.73
2022-11-25T16:13:21.118Z,126.83
2022-11-25T16:16:10.499Z,71.60
2022-11-25T16:18:44.187Z,76.22
2022-11-25T16:21:22.511Z,108.40
2022-11-25T16:23:53.758Z,82.17
2022-11-25T16:26:31.963Z,95.60
2022-11-25T16:29:00.858Z,107.27
2022-11-25T16:34:29.776Z,121.00
2022-11-25T16:36:56.960Z,107.43
2022-11-25T16:39:24.493Z,111.17
2022-11-25T16:41:57.893Z,94.30
2022-11-25T16:44:26.358Z,94.13
2022-11-25T16:46:54.174Z,101.55
2022-11-25T16:49:22.644Z,98.83
2022-11-25T16:51:53.329Z,105.30
2022-11-25T16:54:21.555Z,106.80
2022-11-25T16:56:58.399Z,64.63
2022-11-25T16:59:32.462Z,92.23
2022-11-25T17:02:01.329Z,95.50
2022-11-25T17:04:28.516Z,110.68
2022-11-25T17:07:30.553Z,107.47
2022-11-25T17:09:44.370Z,103.40
2022-11-25T17:12:21.241Z,94.00
2022-11-25T17:14:48.999Z,103.30
2022-11-25T17:17:24.402Z,76.67
2022-11-25T17:19:52.130Z,105.60
2022-11-25T17:22:22.720Z,123.10
2022-11-25T17:24:49.637Z,125.57
2022-11-25T17:27:25.008Z,117.00
2022-11-25T17:29:52.686Z,118.23
2022-11-25T17:32:20.808Z,110.93
2022-11-25T17:34:47.661Z,110.53
2022-11-25T17:37:17.435Z,113.60
2022-11-25T17:39:44.579Z,120.67
2022-11-25T17:42:15.108Z,123.83
2022-11-25T17:44:42.732Z,113.77
2022-11-25T17:47:15.528Z,108.77
2022-11-25T17:49:42.599Z,114.57
2022-11-25T17:52:09.677Z,109.53
2022-11-25T17:54:36.669Z,110.87
2022-11-25T17:57:05.513Z,105.93
2022-11-25T17:59:33.934Z,113.00
2022-11-25T18:02:01.264Z,104.50
2022-11-25T18:04:34.751Z,96.23
2022-11-25T18:07:02.040Z,104.20
2022-11-25T18:09:28.793Z,101.83
2022-11-25T18:11:59.244Z,101.93
2022-11-25T18:14:30.888Z,93.27
2022-11-25T18:17:01.860Z,88.53
2022-11-25T18:19:28.826Z,84.27
2022-11-25T18:22:02.190Z,75.57
2022-11-25T18:24:28.972Z,64.17
2022-11-25T18:26:57.724Z,65.27
2022-11-25T18:29:27.001Z,64.78
2022-11-25T18:31:56.568Z,61.13
2022-11-25T18:34:24.129Z,58.67
2022-11-25T18:36:51.934Z,55.03
2022-11-25T18:39:19.306Z,60.37
2022-11-25T18:41:47.409Z,58.80
2022-11-25T18:44:26.778Z,62.07
2022-11-25T18:46:54.889Z,75.93
2022-11-25T18:49:22.233Z,71.40
2022-11-25T18:51:49.355Z,76.50
2022-11-25T18:54:16.128Z,96.00
2022-11-25T18:56:43.737Z,88.47
2022-11-25T18:59:17.352Z,84.77
2022-11-25T19:01:49.649Z,87.43
2022-11-25T19:04:17.067Z,87.27
2022-11-25T19:06:44.397Z,89.40
2022-11-25T19:09:12.274Z,93.17
2022-11-25T19:11:52.673Z,90.43
2022-11-25T19:14:33.396Z,88.47
2022-11-25T19:17:04.023Z,83.60
2022-11-25T19:19:31.032Z,81.40
2022-11-25T19:22:01.318Z,85.80
2022-11-25T19:24:28.411Z,88.20
2022-11-25T19:26:57.236Z,108.33
2022-11-25T19:29:35.375Z,96.63
2022-11-25T19:32:11.860Z,85.23
2022-11-25T19:34:44.680Z,91.83
2022-11-25T19:37:17.344Z,82.70
2022-11-25T19:39:44.166Z,85.83
2022-11-25T19:42:11.332Z,79.93
2022-11-25T19:44:38.394Z,77.20
2022-11-25T19:47:15.176Z,71.63
2022-11-25T19:49:42.915Z,67.33
2022-11-25T19:52:15.674Z,51.83
2022-11-25T19:54:43.035Z,51.07
2022-11-25T19:57:21.056Z,49.80
2022-11-25T19:59:48.539Z,40.97
2022-11-25T20:02:25.427Z,42.43
2022-11-25T20:04:56.152Z,40.87
2022-11-25T20:07:23.522Z,43.57
2022-11-25T20:09:54.627Z,65.80
2022-11-25T20:12:30.520Z,60.13
2022-11-25T20:14:57.273Z,66.10
2022-11-25T20:17:36.604Z,53.47
2022-11-25T20:22:42.792Z,66.63
2022-11-25T20:25:15.471Z,66.80
2022-11-25T20:27:42.615Z,55.00
2022-11-25T20:30:19.664Z,48.97
2022-11-25T20:32:46.937Z,54.97
2022-11-25T20:35:14.264Z,82.30
2022-11-25T20:37:53.989Z,71.80
2022-11-25T20:40:24.719Z,66.63
2022-11-25T20:42:52.986Z,65.57
2022-11-25T20:45:22.056Z,69.67
2022-11-25T20:47:50.991Z,67.33
2022-11-25T20:50:19.242Z,48.75
2022-11-25T20:52:47.814Z,77.75
2022-11-25T20:55:16.724Z,56.55
2022-11-25T21:00:23.125Z,72.60
2022-11-25T21:02:51.502Z,77.40
2022-11-25T21:05:19.012Z,75.70
2022-11-25T21:07:48.004Z,69.13
2022-11-25T21:10:34.814Z,67.80
2022-11-25T21:13:09.441Z,61.93
2022-11-25T21:15:36.272Z,58.40
2022-11-25T21:18:03.371Z,57.80
2022-11-25T21:20:30.312Z,55.53
2022-11-25T21:22:58.573Z,51.63
2022-11-25T21:25:25.769Z,45.97
2022-11-25T21:27:52.800Z,43.17
2022-11-25T21:30:31.143Z,42.87
2022-11-25T21:33:00.909Z,43.05
2022-11-25T21:35:33.841Z,40.93
2022-11-25T21:38:06.178Z,42.30
2022-11-25T21:40:35.635Z,42.37
2022-11-25T21:43:04.449Z,44.93
2022-11-25T21:45:31.336Z,44.95
2022-11-25T21:47:58.337Z,41.60
2022-11-25T21:50:29.640Z,38.43
2022-11-25T21:52:57.264Z,40.67
2022-11-25T21:55:24.008Z,44.40
2022-11-25T21:57:51.421Z,47.50
2022-11-25T22:00:24.568Z,44.03
2022-11-25T22:02:52.511Z,41.13
2022-11-25T22:05:22.344Z,40.93
2022-11-25T22:07:49.554Z,41.33
2022-11-25T22:10:17.308Z,40.73
2022-11-25T22:12:46.979Z,41.27
2022-11-25T22:15:20.208Z,45.07
2022-11-25T22:17:48.609Z,51.00
2022-11-25T22:20:29.187Z,45.80
2022-11-25T22:22:56.740Z,42.50
2022-11-25T22:25:25.799Z,42.67
2022-11-25T22:27:53.100Z,42.50
2022-11-25T22:30:21.826Z,42.23
2022-11-25T22:32:56.992Z,39.15
2022-11-25T22:35:23.795Z,40.00
2022-11-25T22:37:55.186Z,40.33
2022-11-25T22:40:23.866Z,41.60
2022-11-25T22:42:54.149Z,44.25
2022-11-25T22:45:31.306Z,40.87
2022-11-25T22:48:00.709Z,39.70
2022-11-25T22:50:31.126Z,38.13
2022-11-25T22:52:59.903Z,39.13
2022-11-25T22:55:29.486Z,37.60
2022-11-25T22:57:58.522Z,36.10
2022-11-25T23:00:37.684Z,35.72
2022-11-25T23:03:06.770Z,35.90
2022-11-25T23:05:36.145Z,36.55
2022-11-25T23:08:14.346Z,36.90
2022-11-25T23:10:41.458Z,37.70
2022-11-25T23:13:08.960Z,39.10
2022-11-25T23:15:36.415Z,43.07
2022-11-25T23:18:07.326Z,39.53
2022-11-25T23:20:37.394Z,39.03
2022-11-25T23:23:14.562Z,39.40
2022-11-25T23:25:41.580Z,40.20
2022-11-25T23:28:08.754Z,40.13
2022-11-25T23:30:35.859Z,41.77
2022-11-25T23:33:04.352Z,40.60
2022-11-25T23:35:38.983Z,40.17
2022-11-25T23:38:08.833Z,41.63
2022-11-25T23:40:35.615Z,38.83
2022-11-25T23:43:03.182Z,36.40
2022-11-25T23:45:30.043Z,38.67
2022-11-25T23:47:57.413Z,37.40
2022-11-25T23:50:32.335Z,36.53
2022-11-25T23:53:07.162Z,39.03
2022-11-25T23:55:37.266Z,36.77
2022-11-25T23:58:15.123Z,35.20
